Data for 02/08/2007

Time Sea-Level Adjusted Pressure Absolute Pressure Temperature Relative Humidity Dew Point   
(mb) (inHg) (mb) (inHg) (C) (F) (%) (C) (F)
00:05 1016 30 846 24.98 -3.4 25.9 83 -5.9 21.5
00:10 1016 30 846 24.98 -3.4 25.9 82 -6 21.3
00:15 1016 30 845 24.95 -3.3 26 82 -6 21.2
00:20 1016 30 846 24.98 -3.4 25.9 83 -6 21.3
00:25 1016 30 846 24.98 -3.4 25.9 83 -5.9 21.3
00:30 1016 30 846 24.98 -3.2 26.2 83 -5.8 21.6
00:35 1016 30 845 24.95 -2.9 26.8 82 -5.5 22.1
00:40 1016 30 845 24.95 -2.7 27.1 81 -5.5 22.1
00:45 1016 30 845 24.95 -2.7 27.2 88 -4.4 24.1
00:50 1016 30 845 24.95 -2.6 27.4 91 -3.8 25.2
00:55 1016 30 845 24.95 -2.5 27.5 94 -3.3 26.1
01:00 1016 30 845 24.95 -2.5 27.5 96 -3.1 26.5
01:05 1016 30 845 24.95 -2.5 27.5 96 -3.1 26.4
01:10 1016 30 845 24.95 -2.8 27 84 -5.1 22.8
01:15 1016 30 845 24.95 -2.8 27 81 -5.5 22.1
01:20 1016 30 845 24.95 -2.9 26.8 81 -5.6 21.9
01:25 1016 30 845 24.95 -3 26.6 81 -5.8 21.6
01:30 1016 30 845 24.95 -3.3 26.1 82 -5.9 21.4
01:35 1016 30 845 24.95 -3.3 26.1 82 -5.9 21.5
01:40 1015 29.97 845 24.95 -3.4 26 83 -5.9 21.4
01:45 1015 29.97 845 24.95 -3.5 25.8 82 -6.1 21.1
01:50 1015 29.97 845 24.95 -3.5 25.7 82 -6.1 21
01:55 1015 29.97 845 24.95 -3.5 25.7 82 -6.1 20.9
02:00 1015 29.97 845 24.95 -3.5 25.7 81 -6.3 20.7
02:05 1015 29.97 845 24.95 -3.6 25.6 82 -6.2 20.8
02:10 1015 29.97 845 24.95 -3.5 25.7 82 -6.2 20.9
02:15 1015 29.97 845 24.95 -3.4 25.9 82 -6 21.2
02:20 1015 29.97 845 24.95 -3.2 26.3 82 -5.8 21.6
02:25 1015 29.97 845 24.95 -3.1 26.5 82 -5.8 21.6
02:30 1015 29.97 845 24.95 -3 26.6 81 -5.9 21.4
02:35 1015 29.97 845 24.95 -3.1 26.4 82 -5.7 21.7
02:40 1015 29.97 845 24.95 -3.1 26.5 82 -5.7 21.8
02:45 1015 29.97 845 24.95 -3 26.6 85 -5.1 22.8
02:50 1015 29.97 845 24.95 -2.9 26.7 87 -4.8 23.4
02:55 1015 29.97 845 24.95 -2.9 26.8 85 -5.1 22.8
03:00 1015 29.97 844 24.92 -2.9 26.7 84 -5.3 22.5
03:05 1015 29.97 844 24.92 -3 26.7 82 -5.6 21.9
03:10 1015 29.97 844 24.92 -3 26.6 82 -5.7 21.7
03:15 1015 29.97 844 24.92 -3.1 26.5 81 -5.9 21.3
03:20 1015 29.97 844 24.92 -3.2 26.2 81 -6 21.1
03:25 1015 29.97 844 24.92 -3.4 25.9 81 -6.2 20.9
03:30 1015 29.97 844 24.92 -3.4 25.8 82 -6.1 21
03:35 1015 29.97 844 24.92 -3.5 25.8 83 -5.9 21.3
03:40 1015 29.97 844 24.92 -3.3 26 85 -5.4 22.2
03:45 1015 29.97 844 24.92 -3.1 26.4 89 -4.7 23.5
03:50 1015 29.97 844 24.92 -2.8 26.9 92 -4 24.8
03:55 1015 29.97 845 24.95 -2.7 27.1 93 -3.6 25.4
04:00 1015 29.97 845 24.95 -2.7 27.1 95 -3.5 25.7
04:05 1016 30 845 24.95 -2.8 27 96 -3.4 25.9
04:10 1016 30 845 24.95 -2.9 26.8 96 -3.4 25.9
04:15 1016 30 845 24.95 -3.1 26.4 97 -3.5 25.7
04:20 1016 30 845 24.95 -3 26.6 98 -3.3 26
04:25 1016 30 845 24.95 -3 26.6 98 -3.3 26
04:30 1016 30 845 24.95 -3 26.5 97 -3.4 25.9
04:35 1016 30 845 24.95 -3.1 26.5 97 -3.5 25.8
04:40 1016 30 845 24.95 -3.5 25.8 98 -3.7 25.3
04:45 1016 30 845 24.95 -3.5 25.7 98 -3.8 25.1
04:50 1015 29.97 845 24.95 -4 24.9 95 -4.7 23.5
04:55 1015 29.97 845 24.95 -4.1 24.6 86 -6.1 21
05:00 1015 29.97 844 24.92 -4 24.7 84 -6.4 20.6
05:05 1015 29.97 844 24.92 -4.1 24.6 83 -6.6 20.1
05:10 1015 29.97 844 24.92 -4.1 24.6 83 -6.6 20.1
05:15 1015 29.97 844 24.92 -4.2 24.4 83 -6.7 19.9
05:20 1015 29.97 844 24.92 -4.3 24.3 83 -6.7 19.9
05:25 1015 29.97 844 24.92 -4.4 24.2 83 -6.9 19.6
05:30 1015 29.97 844 24.92 -4.5 23.9 83 -6.9 19.5
05:35 1015 29.97 845 24.95 -4.5 23.9 84 -6.9 19.6
05:40 1015 29.97 845 24.95 -4.4 24 83 -6.9 19.7
05:45 1015 29.97 845 24.95 -4.4 24.1 83 -6.8 19.8
05:50 1015 29.97 845 24.95 -4.3 24.3 84 -6.7 20
05:55 1015 29.97 844 24.92 -4.3 24.3 84 -6.6 20.1
06:00 1015 29.97 845 24.95 -4.2 24.4 84 -6.6 20.1
06:05 1015 29.97 845 24.95 -4.3 24.3 84 -6.6 20.1
06:10 1015 29.97 845 24.95 -4.3 24.3 84 -6.6 20.2
06:15 1015 29.97 845 24.95 -4.2 24.4 84 -6.6 20.2
06:20 1015 29.97 845 24.95 -4.2 24.5 84 -6.4 20.4
06:25 1015 29.97 845 24.95 -4.1 24.6 86 -6.2 20.9
06:30 1015 29.97 845 24.95 -4 24.9 87 -5.9 21.4
06:35 1015 29.97 845 24.95 -3.8 25.2 87 -5.7 21.8
06:40 1016 30 845 24.95 -3.7 25.4 87 -5.5 22
06:45 1016 30 845 24.95 -3.6 25.4 88 -5.4 22.2
06:50 1016 30 845 24.95 -3.6 25.5 86 -5.7 21.7
06:55 1016 30 845 24.95 -3.7 25.3 85 -5.8 21.5
07:00 1016 30 845 24.95 -3.7 25.4 84 -6 21.3
07:05 1016 30 845 24.95 -3.7 25.3 85 -5.9 21.3
07:10 1016 30 845 24.95 -3.6 25.4 87 -5.6 22
07:15 1016 30 845 24.95 -3.7 25.3 89 -5.3 22.5
07:20 1016 30 845 24.95 -3.7 25.3 89 -5.3 22.5
07:25 1016 30 845 24.95 -3.8 25.2 84 -6.1 21
07:30 1016 30 845 24.95 -4 24.9 83 -6.4 20.4
07:35 1016 30 845 24.95 -4 24.8 85 -6.2 20.8
07:40 1016 30 845 24.95 -3.8 25.1 86 -5.8 21.5
07:45 1016 30 845 24.95 -3.8 25.1 89 -5.3 22.5
07:50 1016 30 845 24.95 -3.7 25.3 87 -5.6 21.9
07:55 1016 30 845 24.95 -3.7 25.3 85 -5.9 21.5
08:00 1016 30 845 24.95 -3.8 25.1 84 -6.1 21
08:05 1016 30 845 24.95 -3.9 24.9 85 -6.1 21
08:10 1016 30 845 24.95 -4 24.8 87 -5.9 21.5
08:15 1016 30 845 24.95 -4.2 24.5 88 -5.8 21.5
08:20 1016 30 845 24.95 -4.2 24.5 90 -5.6 22
08:25 1016 30 845 24.95 -4.2 24.4 89 -5.7 21.7
08:30 1016 30 845 24.95 -4.3 24.2 91 -5.6 22
08:35 1016 30 845 24.95 -4.3 24.2 92 -5.4 22.3
08:40 1016 30 845 24.95 -4.3 24.3 93 -5.2 22.6
08:45 1016 30 845 24.95 -4.3 24.2 94 -5.2 22.7
08:50 1016 30 845 24.95 -4.3 24.2 94 -5.1 22.8
08:55 1016 30 845 24.95 -4.4 24.1 95 -5.1 22.8
09:00 1016 30 845 24.95 -4.4 24 95 -5.1 22.8
09:05 1016 30 845 24.95 -4.3 24.2 96 -4.9 23.1
09:10 1016 30 845 24.95 -4.2 24.4 95 -4.9 23.1
09:15 1016 30 845 24.95 -4.1 24.7 95 -4.8 23.4
09:20 1016 30 845 24.95 -4.1 24.6 95 -4.8 23.3
09:25 1016 30 845 24.95 -4 24.8 95 -4.6 23.7
09:30 1016 30 845 24.95 -3.8 25.1 95 -4.6 23.8
09:35 1016 30 845 24.95 -3.8 25.2 95 -4.5 23.9
09:40 1016 30 845 24.95 -3.7 25.3 95 -4.5 24
09:45 1016 30 845 24.95 -3.6 25.4 95 -4.4 24.2
09:50 1016 30 845 24.95 -3.7 25.4 95 -4.4 24.1
09:55 1016 30 845 24.95 -3.6 25.6 95 -4.3 24.3
10:00 1016 30 845 24.95 -3.5 25.7 95 -4.3 24.3
10:05 1016 30 845 24.95 -3.3 26.1 92 -4.4 24.1
10:10 1016 30 845 24.95 -3.3 26 92 -4.5 24
10:15 1016 30 845 24.95 -3.4 25.8 91 -4.7 23.6
10:20 1016 30 845 24.95 -3.5 25.7 92 -4.6 23.6
10:25 1016 30 845 24.95 -3.3 26 91 -4.6 23.8
10:30 1016 30 845 24.95 -3.2 26.2 91 -4.5 23.9
10:35 1016 30 846 24.98 -3.1 26.3 89 -4.7 23.5
10:40 1016 30 846 24.98 -3.4 26 90 -4.7 23.5
10:45 1016 30 846 24.98 -3.3 26 90 -4.7 23.5
10:50 1016 30 846 24.98 -3.2 26.3 92 -4.4 24.2
10:55 1016 30 846 24.98 -2.9 26.8 91 -4.2 24.4
11:00 1016 30 846 24.98 -2.6 27.3 89 -4.1 24.6
11:05 1016 30 846 24.98 -2.8 27 89 -4.3 24.3
11:10 1016 30 846 24.98 -2.9 26.7 90 -4.3 24.3
11:15 1017 30.03 846 24.98 -3 26.6 90 -4.4 24.1
11:20 1017 30.03 846 24.98 -3.1 26.3 91 -4.4 24.1
11:25 1017 30.03 846 24.98 -3.2 26.3 92 -4.4 24.1
11:30 1017 30.03 846 24.98 -3.2 26.2 92 -4.3 24.2
11:35 1017 30.03 846 24.98 -3.2 26.2 92 -4.4 24.1
11:40 1017 30.03 846 24.98 -3.2 26.3 92 -4.3 24.3
11:45 1017 30.03 846 24.98 -2.7 27.1 90 -4.1 24.7
11:50 1017 30.03 846 24.98 -2.5 27.5 91 -3.8 25.2
11:55 1017 30.03 846 24.98 -2.2 28 90 -3.7 25.3
12:00 1017 30.03 846 24.98 -2.4 27.6 89 -4 24.7
12:05 1017 30.03 846 24.98 -2.4 27.7 91 -3.7 25.4
12:10 1017 30.03 846 24.98 -2 28.4 87 -3.8 25.1
12:15 1017 30.03 846 24.98 -2.2 28 88 -3.9 25
12:20 1017 30.03 846 24.98 -2.1 28.2 88 -3.8 25.2
12:25 1017 30.03 846 24.98 -1.9 28.6 88 -3.7 25.4
12:30 1017 30.03 846 24.98 -1.5 29.2 86 -3.6 25.4
12:35 1017 30.03 846 24.98 -1.4 29.4 85 -3.7 25.3
12:40 1017 30.03 846 24.98 -1.3 29.7 84 -3.7 25.4
12:45 1017 30.03 846 24.98 -0.9 30.3 81 -3.7 25.3
12:50 1017 30.03 846 24.98 -1.2 29.8 83 -3.8 25.2
12:55 1017 30.03 846 24.98 -1.1 30 82 -3.8 25.1
13:00 1017 30.03 846 24.98 -1.1 30.1 82 -3.8 25.1
13:05 1017 30.03 846 24.98 -1.1 30 80 -4.1 24.6
13:10 1017 30.03 846 24.98 -1.6 29.1 83 -4.1 24.6
13:15 1017 30.03 846 24.98 -1 30.3 80 -4 24.7
13:20 1017 30.03 846 24.98 -0.6 31 78 -3.9 24.9
13:25 1017 30.03 846 24.98 -0.5 31 79 -3.8 25.2
13:30 1017 30.03 846 24.98 -0.6 31 78 -3.9 25
13:35 1017 30.03 846 24.98 -0.6 30.9 79 -3.8 25.1
13:40 1017 30.03 846 24.98 -0.5 31.1 78 -3.9 25
13:45 1017 30.03 846 24.98 -0.5 31.1 78 -3.9 25
13:50 1017 30.03 846 24.98 -0.4 31.3 77 -3.9 25
13:55 1017 30.03 846 24.98 -0.1 31.8 75 -4.1 24.7
14:00 1017 30.03 846 24.98 -0 31.9 75 -3.9 25
14:05 1017 30.03 846 24.98 -0.6 30.9 79 -3.9 25
14:10 1017 30.03 846 24.98 -0.8 30.5 80 -3.9 24.9
14:15 1017 30.03 846 24.98 -0.1 31.8 75 -4 24.9
14:20 1017 30.03 846 24.98 0.2 32.3 74 -3.9 25
14:25 1017 30.03 846 24.98 0 32 75 -3.9 25
14:30 1017 30.03 846 24.98 -0.5 31.2 77 -4 24.8
14:35 1017 30.03 846 24.98 -0.5 31.1 78 -3.9 25
14:40 1017 30.03 846 24.98 -1.2 29.9 81 -4 24.7
14:45 1017 30.03 846 24.98 -0.9 30.4 78 -4.3 24.3
14:50 1017 30.03 846 24.98 -1.5 29.2 83 -4.1 24.6
14:55 1017 30.03 846 24.98 -1.5 29.3 81 -4.3 24.2
15:00 1017 30.03 846 24.98 -1.6 29 83 -4.1 24.6
15:05 1017 30.03 846 24.98 -1.2 29.8 83 -3.8 25.1
15:10 1017 30.03 847 25.01 -0.5 31.2 78 -3.8 25.1
15:15 1017 30.03 847 25.01 -0.8 30.6 80 -3.7 25.3
15:20 1017 30.03 847 25.01 -0.6 31 79 -3.7 25.3
15:25 1018 30.06 847 25.01 -0.4 31.2 79 -3.7 25.3
15:30 1018 30.06 847 25.01 -0.7 30.7 81 -3.6 25.6
15:35 1018 30.06 847 25.01 -0.8 30.5 81 -3.6 25.5
15:40 1018 30.06 847 25.01 -1 30.1 81 -3.8 25.1
15:45 1018 30.06 847 25.01 -1.4 29.5 84 -3.8 25.1
15:50 1018 30.06 847 25.01 -1.3 29.7 83 -3.9 25.1
15:55 1018 30.06 847 25.01 -1.4 29.4 84 -3.9 25.1
16:00 1018 30.06 847 25.01 -1.6 29 85 -3.9 25
16:05 1018 30.06 847 25.01 -1.7 29 85 -3.9 25
16:10 1018 30.06 847 25.01 -2.3 27.9 88 -4 24.7
16:15 1018 30.06 847 25.01 -2.5 27.5 89 -4.2 24.5
16:20 1018 30.06 847 25.01 -2.7 27.1 89 -4.3 24.3
16:25 1018 30.06 847 25.01 -3 26.6 91 -4.3 24.3
16:30 1018 30.06 847 25.01 -2.6 27.4 89 -4.2 24.5
16:35 1018 30.06 847 25.01 -2.6 27.3 90 -4.1 24.6
16:40 1018 30.06 847 25.01 -2.4 27.6 89 -4 24.7
16:45 1018 30.06 847 25.01 -2.2 28 88 -4 24.8
16:50 1018 30.06 847 25.01 -2.1 28.3 87 -4 24.8
16:55 1018 30.06 847 25.01 -2.5 27.6 89 -4 24.8
17:00 1018 30.06 848 25.04 -2.8 26.9 91 -4.2 24.5
17:05 1018 30.06 848 25.04 -2.8 26.9 91 -4.1 24.5
17:10 1018 30.06 848 25.04 -2.8 27 91 -4.1 24.7
17:15 1019 30.09 848 25.04 -2.7 27.2 91 -4 24.8
17:20 1019 30.09 848 25.04 -2.5 27.5 90 -3.9 24.9
17:25 1019 30.09 848 25.04 -2.6 27.4 90 -3.9 25
17:30 1019 30.09 848 25.04 -2.5 27.5 89 -4 24.7
17:35 1019 30.09 848 25.04 -2.6 27.4 90 -3.9 24.9
17:40 1019 30.09 848 25.04 -2.4 27.7 90 -3.9 25
17:45 1019 30.09 848 25.04 -2.3 27.9 89 -3.9 25
17:50 1019 30.09 848 25.04 -2.2 28 88 -3.9 25
17:55 1019 30.09 848 25.04 -2.3 27.8 89 -3.9 24.9
18:00 1019 30.09 848 25.04 -2.3 27.9 89 -3.9 25.1
18:05 1019 30.09 848 25.04 -2.3 27.8 89 -3.9 25
18:10 1019 30.09 849 25.07 -2.4 27.7 89 -3.9 25
18:15 1019 30.09 849 25.07 -2.4 27.7 90 -3.9 25
18:20 1019 30.09 849 25.07 -2.4 27.7 90 -3.9 25
18:25 1019 30.09 849 25.07 -2.4 27.6 91 -3.8 25.2
18:30 1019 30.09 849 25.07 -2.5 27.6 91 -3.7 25.4
18:35 1019 30.09 849 25.07 -2.5 27.5 91 -3.8 25.2
18:40 1019 30.09 849 25.07 -2.5 27.5 91 -3.8 25.2
18:45 1020 30.12 849 25.07 -2.5 27.5 91 -3.8 25.2
18:50 1020 30.12 849 25.07 -2.6 27.4 91 -3.9 25
18:55 1020 30.12 849 25.07 -2.7 27.2 91 -3.9 25
19:00 1020 30.12 849 25.07 -2.7 27.1 91 -4 24.9
19:05 1020 30.12 849 25.07 -2.7 27.1 91 -4 24.8
19:10 1020 30.12 849 25.07 -2.7 27.1 91 -3.9 24.9
19:15 1020 30.12 849 25.07 -2.8 26.9 91 -4.1 24.6
19:20 1020 30.12 849 25.07 -3 26.7 92 -4.1 24.6
19:25 1020 30.12 849 25.07 -3.2 26.3 93 -4.1 24.6
19:30 1020 30.12 849 25.07 -3.2 26.2 93 -4.1 24.5
19:35 1020 30.12 849 25.07 -3.4 26 94 -4.2 24.4
19:40 1020 30.12 849 25.07 -3.4 25.8 94 -4.2 24.4
19:45 1020 30.12 849 25.07 -3.3 26.1 94 -4.1 24.7
19:50 1020 30.12 849 25.07 -3.4 25.9 95 -4.1 24.6
19:55 1019 30.09 849 25.07 -3.4 25.9 95 -4.1 24.6
20:00 1019 30.09 849 25.07 -3.4 25.9 95 -4 24.8
20:05 1019 30.09 849 25.07 -3.5 25.7 95 -4.1 24.5
20:10 1019 30.09 849 25.07 -3.6 25.6 95 -4.2 24.4
20:15 1019 30.09 849 25.07 -3.5 25.6 95 -4.2 24.5
20:20 1019 30.09 849 25.07 -3.5 25.7 95 -4.2 24.5
20:25 1020 30.12 849 25.07 -3.5 25.7 95 -4.1 24.5
20:30 1019 30.09 849 25.07 -3.4 25.8 95 -4.1 24.6
20:35 1020 30.12 849 25.07 -3.4 25.8 95 -4.1 24.7
20:40 1020 30.12 849 25.07 -3.5 25.7 96 -4.1 24.6
20:45 1020 30.12 849 25.07 -3.5 25.8 96 -4 24.7
20:50 1020 30.12 849 25.07 -3.2 26.2 96 -3.8 25.1
20:55 1020 30.12 849 25.07 -3 26.6 94 -3.8 25.2
21:00 1020 30.12 849 25.07 -3 26.7 93 -3.9 25
21:05 1020 30.12 849 25.07 -3 26.6 93 -4 24.8
21:10 1020 30.12 849 25.07 -3.1 26.4 93 -4.1 24.5
21:15 1020 30.12 849 25.07 -3.3 26.1 92 -4.3 24.2
21:20 1020 30.12 849 25.07 -3.3 26 93 -4.3 24.2
21:25 1020 30.12 849 25.07 -3.4 25.9 93 -4.4 24.1
21:30 1020 30.12 849 25.07 -3.3 26 93 -4.4 24.1
21:35 1020 30.12 849 25.07 -3.4 25.9 91 -4.6 23.7
21:40 1020 30.12 849 25.07 -3.7 25.4 93 -4.6 23.7
21:45 1020 30.12 849 25.07 -3.7 25.4 93 -4.6 23.7
21:50 1020 30.12 849 25.07 -3.6 25.4 93 -4.6 23.8
21:55 1020 30.12 849 25.07 -3.6 25.5 93 -4.6 23.8
22:00 1020 30.12 849 25.07 -3.6 25.5 93 -4.6 23.7
22:05 1019 30.09 849 25.07 -3.6 25.5 93 -4.6 23.7
22:10 1019 30.09 849 25.07 -3.7 25.3 93 -4.7 23.6
22:15 1019 30.09 849 25.07 -3.7 25.4 93 -4.6 23.7
22:20 1020 30.12 849 25.07 -3.7 25.3 93 -4.7 23.5
22:25 1020 30.12 849 25.07 -3.7 25.3 92 -4.8 23.3
22:30 1020 30.12 849 25.07 -3.8 25.2 92 -4.9 23.1
22:35 1020 30.12 849 25.07 -3.8 25.2 92 -5 23.1
22:40 1020 30.12 849 25.07 -3.7 25.4 91 -5 23
22:45 1020 30.12 849 25.07 -3.7 25.3 90 -5.1 22.8
22:50 1020 30.12 849 25.07 -3.8 25.2 90 -5.2 22.7
22:55 1019 30.09 849 25.07 -3.9 25.1 90 -5.2 22.6
23:00 1020 30.12 849 25.07 -3.9 25 91 -5.2 22.7
23:05 1019 30.09 849 25.07 -3.9 25 91 -5.2 22.6
23:10 1019 30.09 849 25.07 -3.8 25.1 91 -5.1 22.8
23:15 1019 30.09 849 25.07 -4 24.9 91 -5.2 22.6
23:20 1019 30.09 849 25.07 -4 24.9 91 -5.2 22.6
23:25 1019 30.09 849 25.07 -4.1 24.6 91 -5.3 22.5
23:30 1019 30.09 849 25.07 -4.1 24.5 91 -5.4 22.3
23:35 1020 30.12 849 25.07 -4.2 24.5 91 -5.4 22.2
23:40 1020 30.12 849 25.07 -4.2 24.4 91 -5.5 22.2
23:45 1020 30.12 849 25.07 -4.3 24.3 92 -5.5 22.1
23:50 1020 30.12 849 25.07 -4.4 24.1 92 -5.5 22
23:55 1020 30.12 849 25.07 -4.6 23.8 93 -5.6 21.9
24:00 1020 30.12 849 25.07 -4.6 23.7 92 -5.7 21.8